Time;durP1;ratioP1;P1;durP2;ratioP2;P2;SDS_P1;SDS_P2;PMS_P1;PMS_P2;Temp;Humidity;BMP_temperature;BMP_pressure;BME280_temperature;BME280_humidity;BME280_pressure;Samples;Min_cycle;Max_cycle;Signal;HPM_P1;HPM_P2
2022/02/10 00:21:48;;;;;;;0.75;0.75;;;5.90;99.90;;;;;;5053375;28;20041;-66
2022/02/10 00:34:57;;;;;;;0.10;0.10;;;5.80;99.90;;;;;;5053335;28;20068;-66
2022/02/10 00:37:36;;;;;;;1.37;1.37;;;5.70;99.90;;;;;;5053528;28;20039;-67
2022/02/10 00:40:10;;;;;;;0.73;0.73;;;5.70;99.90;;;;;;5052041;28;20284;-67
2022/02/10 00:42:36;;;;;;;0.90;0.90;;;5.60;99.90;;;;;;5051721;28;20029;-65
2022/02/10 00:45:03;;;;;;;0.10;0.10;;;5.60;99.90;;;;;;5068544;28;20477;-66
2022/02/10 00:47:33;;;;;;;0.30;0.30;;;5.50;99.90;;;;;;5052822;28;20094;-65
2022/02/10 00:50:02;;;;;;;0.60;0.60;;;5.50;99.90;;;;;;5052975;28;20098;-65
2022/02/10 00:52:27;;;;;;;0.10;0.10;;;5.40;99.90;;;;;;5052954;28;20124;-65
2022/02/10 00:54:53;;;;;;;1.27;1.17;;;5.50;99.90;;;;;;5052913;28;20104;-66
2022/02/10 00:57:21;;;;;;;0.15;0.15;;;5.40;99.90;;;;;;5053050;28;20759;-66
2022/02/10 01:00:18;;;;;;;0.65;0.65;;;5.40;99.90;;;;;;5052971;28;20035;-66
2022/02/10 01:12:55;;;;;;;1.75;1.33;;;5.40;99.90;;;;;;5066445;28;20032;-66
2022/02/10 01:31:49;;;;;;;0.40;0.40;;;5.80;99.90;;;;;;5052317;28;20496;-65
2022/02/10 01:34:15;;;;;;;0.10;0.10;;;5.80;99.90;;;;;;5051904;28;20076;-65
2022/02/10 01:36:40;;;;;;;0.63;0.57;;;5.70;99.90;;;;;;5051892;28;20485;-65
2022/02/10 01:39:07;;;;;;;0.17;0.17;;;5.70;99.90;;;;;;5052347;28;20061;-66
2022/02/10 01:42:46;;;;;;;6.22;2.15;;;5.60;99.90;;;;;;5052031;28;20245;-65
2022/02/10 02:04:17;;;;;;;0.20;0.20;;;5.40;99.90;;;;;;5064632;28;20070;-65
2022/02/10 02:06:45;;;;;;;0.20;0.20;;;5.40;99.90;;;;;;5067141;28;20362;-66
2022/02/10 02:09:15;;;;;;;0.20;0.20;;;5.40;99.90;;;;;;5066788;28;20044;-65
2022/02/10 02:11:44;;;;;;;0.25;0.25;;;5.40;99.90;;;;;;5066979;28;20098;-65
2022/02/10 02:14:24;;;;;;;2.00;1.90;;;5.60;99.90;;;;;;5051756;28;20381;-65
2022/02/10 02:17:02;;;;;;;0.17;0.17;;;5.50;99.90;;;;;;5066777;28;20113;-65
2022/02/10 02:19:29;;;;;;;0.00;0.00;;;5.50;99.90;;;;;;5051768;28;20068;-66
2022/02/10 02:22:07;;;;;;;0.00;0.00;;;5.40;99.90;;;;;;5051683;28;20036;-65
2022/02/10 02:24:34;;;;;;;0.10;0.10;;;5.40;99.90;;;;;;5051711;28;20036;-65
2022/02/10 02:27:03;;;;;;;0.80;0.80;;;5.40;99.90;;;;;;5066875;28;20543;-66
2022/02/10 02:29:36;;;;;;;0.28;0.28;;;5.40;99.90;;;;;;5066779;28;20078;-65
2022/02/10 02:32:10;;;;;;;0.10;0.10;;;5.30;99.90;;;;;;5050310;28;20041;-65
2022/02/10 03:04:38;;;;;;;0.10;0.10;;;5.30;99.90;;;;;;5068145;28;20033;-64
2022/02/10 03:07:16;;;;;;;0.20;0.20;;;5.30;99.90;;;;;;5054627;28;20044;-65
2022/02/10 03:09:53;;;;;;;1.17;1.08;;;5.30;99.90;;;;;;5070364;28;20075;-65
2022/02/10 03:12:19;;;;;;;0.35;0.35;;;5.20;99.90;;;;;;5054844;28;20478;-65
2022/02/10 03:14:49;;;;;;;0.80;0.80;;;5.30;99.90;;;;;;5054913;28;20036;-65
2022/02/10 03:20:09;;;;;;;5.43;0.93;;;5.30;99.90;;;;;;5069692;28;20719;-65
2022/02/10 04:04:40;;;;;;;0.10;0.10;;;5.70;99.90;;;;;;5069301;28;20037;-65
2022/02/10 04:06:54;;;;;;;0.20;0.20;;;5.70;99.90;;;;;;5042896;28;20045;-64
2022/02/10 04:14:39;;;;;;;0.38;0.38;;;5.40;99.90;;;;;;5069331;28;20160;-64
2022/02/10 04:17:32;;;;;;;0.00;0.00;;;5.40;99.90;;;;;;5053726;28;20504;-64
2022/02/10 04:52:57;;;;;;;0.32;0.32;;;5.30;99.90;;;;;;5051976;28;20067;-64
2022/02/10 05:35:06;;;;;;;0.30;0.30;;;4.40;99.90;;;;;;5052222;28;20029;-65
2022/02/10 05:37:35;;;;;;;0.10;0.10;;;4.40;99.90;;;;;;5033740;28;20482;-65
2022/02/10 05:40:06;;;;;;;1.00;0.95;;;4.30;99.90;;;;;;5030492;28;20041;-65
2022/02/10 05:53:52;;;;;;;;;;;4.30;99.90;;;;;;5032237;28;20115;-65
2022/02/10 05:56:43;;;;;;;0.17;0.17;;;4.30;99.90;;;;;;5031714;28;19913;-66
2022/02/10 06:50:04;;;;;;;0.70;0.63;;;4.30;99.90;;;;;;5031171;28;20500;-65
2022/02/10 07:02:35;;;;;;;0.30;0.30;;;4.40;99.90;;;;;;5050455;28;20032;-65
2022/02/10 07:04:00;;;;;;;0.20;0.20;;;4.40;99.90;;;;;;5050974;28;20136;-64
2022/02/10 07:49:42;;;;;;;0.10;0.10;;;4.70;99.90;;;;;;5054076;28;20036;-65
2022/02/10 08:57:03;;;;;;;0.20;0.20;;;7.60;99.90;;;;;;5045982;28;20038;-65
2022/02/10 08:59:54;;;;;;;0.70;0.35;;;7.70;99.90;;;;;;5045597;28;20075;-65
2022/02/10 09:25:47;;;;;;;0.13;0.13;;;7.80;99.90;;;;;;5052026;28;20470;-65
2022/02/10 10:01:48;;;;;;;0.15;0.15;;;7.70;99.90;;;;;;5066272;28;20493;-65
2022/02/10 10:04:22;;;;;;;0.10;0.10;;;7.80;99.90;;;;;;5051691;28;20470;-65
2022/02/10 10:07:03;;;;;;;0.43;0.43;;;7.80;99.90;;;;;;5051612;28;20127;-66
2022/02/10 10:09:49;;;;;;;0.57;0.32;;;7.80;99.90;;;;;;5051491;28;20774;-65
2022/02/10 10:50:31;;;;;;;0.00;0.00;;;8.10;99.90;;;;;;5051366;28;20033;-66
2022/02/10 10:53:21;;;;;;;0.08;0.08;;;8.10;99.90;;;;;;5050838;28;20037;-66
2022/02/10 10:56:08;;;;;;;0.17;0.17;;;8.10;99.90;;;;;;5066628;28;20036;-66
2022/02/10 11:38:43;;;;;;;0.98;0.90;;;8.10;99.90;;;;;;5054309;28;20428;-66
2022/02/10 13:29:18;;;;;;;0.20;0.20;;;8.10;99.90;;;;;;5052711;28;20037;-65
2022/02/10 14:13:29;;;;;;;1.92;1.50;;;8.10;99.90;;;;;;5064530;28;20041;-65
2022/02/10 14:18:31;;;;;;;0.85;0.70;;;8.10;99.90;;;;;;5066717;28;20033;-65
2022/02/10 14:21:03;;;;;;;0.50;0.50;;;8.00;99.90;;;;;;5051841;28;20021;-65
2022/02/10 14:26:28;;;;;;;0.65;0.65;;;8.20;99.90;;;;;;5066623;28;20032;-65
2022/02/10 14:28:55;;;;;;;0.32;0.32;;;8.10;99.90;;;;;;5067059;28;20466;-65
2022/02/10 14:31:21;;;;;;;0.00;0.00;;;8.10;99.90;;;;;;5050280;28;20032;-65
2022/02/10 14:33:49;;;;;;;0.10;0.10;;;8.10;99.90;;;;;;5051266;28;20056;-65
2022/02/10 14:36:48;;;;;;;0.00;0.00;;;8.10;99.90;;;;;;5051107;28;20118;-65
2022/02/10 14:39:21;;;;;;;0.15;0.15;;;8.10;99.90;;;;;;5049760;28;20072;-65
2022/02/10 14:42:16;;;;;;;0.20;0.20;;;7.90;99.90;;;;;;5050238;28;20446;-65
2022/02/10 16:17:57;;;;;;;0.00;0.00;;;7.70;99.90;;;;;;5068337;28;20025;-65
2022/02/10 16:20:29;;;;;;;0.10;0.10;;;7.60;99.90;;;;;;5052384;28;20028;-65
2022/02/10 16:23:00;;;;;;;0.10;0.10;;;7.50;99.90;;;;;;5069319;28;20098;-65
2022/02/10 16:25:31;;;;;;;0.17;0.17;;;7.50;99.90;;;;;;5053820;28;20054;-65
2022/02/10 16:28:09;;;;;;;0.15;0.15;;;7.60;99.90;;;;;;5068452;28;20499;-65
2022/02/10 16:30:39;;;;;;;0.10;0.10;;;7.60;99.90;;;;;;5068861;28;20037;-65
2022/02/10 16:33:05;;;;;;;0.00;0.00;;;7.50;99.90;;;;;;5068367;28;20060;-65
2022/02/10 16:35:31;;;;;;;0.30;0.30;;;7.50;99.90;;;;;;5053465;28;20044;-65
2022/02/10 16:37:58;;;;;;;0.90;0.57;;;7.60;99.90;;;;;;5068731;28;20060;-65
2022/02/10 16:40:24;;;;;;;0.10;0.10;;;7.50;99.90;;;;;;5053006;28;20044;-65
2022/02/10 16:42:51;;;;;;;0.00;0.00;;;7.50;99.90;;;;;;5052965;28;20411;-65
2022/02/10 16:45:17;;;;;;;0.20;0.20;;;7.50;99.90;;;;;;5052514;28;20120;-66
2022/02/10 16:47:44;;;;;;;0.43;0.43;;;7.50;99.90;;;;;;5053265;28;20475;-66
2022/02/10 16:50:10;;;;;;;0.85;0.85;;;7.50;99.90;;;;;;5068292;28;20033;-68
2022/02/10 16:52:59;;;;;;;0.93;0.93;;;7.50;99.90;;;;;;5068107;28;20100;-66
2022/02/10 16:58:24;;;;;;;0.30;0.30;;;7.50;99.90;;;;;;5051562;28;20047;-66
2022/02/10 17:03:50;;;;;;;0.00;0.00;;;7.40;99.90;;;;;;5066272;28;20040;-66
2022/02/10 17:20:13;;;;;;;0.10;0.10;;;7.40;99.90;;;;;;5052411;28;20033;-65
2022/02/10 17:25:32;;;;;;;0.30;0.30;;;7.40;99.90;;;;;;5052164;28;20429;-65
2022/02/10 17:28:01;;;;;;;0.00;0.00;;;7.40;99.90;;;;;;5066393;28;20482;-65
2022/02/10 17:33:15;;;;;;;0.10;0.10;;;7.30;99.90;;;;;;5067313;28;20079;-65
2022/02/10 17:46:38;;;;;;;1.17;1.13;;;7.30;99.90;;;;;;5051835;28;20059;-65
2022/02/10 17:54:23;;;;;;;3.30;1.05;;;7.30;99.90;;;;;;5051891;28;20025;-64
2022/02/10 17:56:49;;;;;;;0.00;0.00;;;7.30;99.90;;;;;;5043227;28;20140;-64
2022/02/10 17:59:17;;;;;;;0.60;0.60;;;7.40;99.90;;;;;;5031710;28;20033;-64
2022/02/10 18:01:44;;;;;;;1.20;1.15;;;7.30;99.90;;;;;;5046993;28;20390;-64
2022/02/10 18:04:12;;;;;;;0.65;0.65;;;7.30;99.90;;;;;;5046920;28;20092;-65
2022/02/10 18:06:46;;;;;;;0.20;0.20;;;7.40;99.90;;;;;;5046769;28;20034;-67
2022/02/10 18:14:10;;;;;;;0.10;0.10;;;7.30;99.90;;;;;;5031876;28;20037;-65
2022/02/10 18:16:42;;;;;;;0.10;0.10;;;7.30;99.90;;;;;;5031475;28;20562;-66
2022/02/10 18:19:24;;;;;;;0.00;0.00;;;7.20;99.90;;;;;;5031808;28;20045;-65
2022/02/10 18:27:13;;;;;;;0.00;0.00;;;7.30;99.90;;;;;;5031463;28;20032;-65
2022/02/10 18:30:11;;;;;;;0.00;0.00;;;7.30;99.90;;;;;;5047044;28;20060;-65
2022/02/10 19:08:09;;;;;;;0.20;0.20;;;7.20;99.90;;;;;;5038787;28;20101;-64
2022/02/10 19:10:36;;;;;;;0.82;0.80;;;7.20;99.90;;;;;;5029611;28;20433;-65
2022/02/10 19:13:02;;;;;;;0.45;0.15;;;7.20;99.90;;;;;;5031126;28;20112;-65
2022/02/10 19:15:34;;;;;;;0.32;0.32;;;7.20;99.90;;;;;;5031168;28;20033;-66
2022/02/10 19:18:18;;;;;;;0.00;0.00;;;7.10;99.90;;;;;;5032993;28;20025;-65
2022/02/10 19:20:44;;;;;;;0.00;0.00;;;7.10;99.90;;;;;;5033925;28;20087;-65
2022/02/10 19:23:10;;;;;;;0.30;0.30;;;7.00;99.90;;;;;;5034080;28;20034;-65
2022/02/10 19:25:39;;;;;;;0.30;0.30;;;7.00;99.90;;;;;;5034347;28;20406;-65
2022/02/10 19:28:09;;;;;;;0.22;0.22;;;7.10;99.90;;;;;;5034869;28;20037;-65
2022/02/10 19:30:38;;;;;;;0.00;0.00;;;7.10;99.90;;;;;;5049593;28;20044;-65
2022/02/10 19:33:12;;;;;;;0.82;0.82;;;7.00;99.90;;;;;;5034301;28;20405;-66
2022/02/10 19:35:44;;;;;;;0.70;0.70;;;7.00;99.90;;;;;;5033162;28;20029;-65
2022/02/10 19:38:15;;;;;;;0.10;0.10;;;7.00;99.90;;;;;;5033129;28;20033;-65
2022/02/10 19:40:42;;;;;;;0.75;0.75;;;7.00;99.90;;;;;;5049173;28;20072;-65
2022/02/10 19:43:10;;;;;;;0.10;0.10;;;7.00;99.90;;;;;;5034511;28;20096;-64
2022/02/10 19:45:36;;;;;;;0.75;0.75;;;6.90;99.90;;;;;;5033996;28;20037;-64
2022/02/10 19:48:02;;;;;;;0.32;0.32;;;6.90;99.90;;;;;;5034422;28;20040;-65
2022/02/10 19:50:30;;;;;;;0.10;0.10;;;6.90;99.90;;;;;;5034322;28;20029;-64
2022/02/10 19:53:01;;;;;;;0.22;0.22;;;7.00;99.90;;;;;;5033964;28;20033;-63
2022/02/10 19:55:29;;;;;;;0.70;0.63;;;7.00;99.90;;;;;;5048735;28;20030;-64
2022/02/10 19:58:03;;;;;;;0.65;0.65;;;7.00;99.90;;;;;;5034132;28;20065;-64
2022/02/10 20:00:35;;;;;;;0.40;0.40;;;7.00;99.90;;;;;;5049362;28;20091;-64
2022/02/10 20:03:07;;;;;;;0.00;0.00;;;7.00;99.90;;;;;;5049203;28;20034;-63
2022/02/10 20:05:33;;;;;;;0.45;0.45;;;6.90;99.90;;;;;;5048043;28;20033;-65
2022/02/10 20:07:59;;;;;;;0.30;0.30;;;6.90;99.90;;;;;;5049219;28;20083;-64
2022/02/10 20:10:25;;;;;;;0.43;0.40;;;6.90;99.90;;;;;;5033963;28;20045;-64
2022/02/10 20:12:51;;;;;;;0.00;0.00;;;6.90;99.90;;;;;;5032319;28;20053;-63
2022/02/10 20:15:21;;;;;;;0.52;0.52;;;6.90;99.90;;;;;;5033936;28;20025;-63
2022/02/10 20:17:48;;;;;;;0.37;0.37;;;6.90;99.90;;;;;;5033801;28;20033;-63
2022/02/10 20:20:13;;;;;;;0.10;0.10;;;6.90;99.90;;;;;;5034058;28;20370;-63
2022/02/10 20:22:39;;;;;;;0.45;0.45;;;6.90;99.90;;;;;;5032608;28;20498;-63
2022/02/10 20:25:07;;;;;;;0.35;0.35;;;6.90;99.90;;;;;;5033772;28;20564;-63
2022/02/10 20:27:35;;;;;;;0.93;0.93;;;6.90;99.90;;;;;;5033729;28;20117;-63
2022/02/10 20:30:06;;;;;;;0.65;0.65;;;6.90;99.90;;;;;;5032367;28;20113;-63
2022/02/10 20:32:32;;;;;;;;;;;6.80;99.90;;;;;;5033541;28;20033;-64
2022/02/10 20:34:57;;;;;;;0.00;0.00;;;6.90;99.90;;;;;;5031841;28;19913;-64
2022/02/10 20:37:24;;;;;;;0.15;0.15;;;6.90;99.90;;;;;;5033618;28;20044;-64
2022/02/10 20:39:51;;;;;;;0.00;0.00;;;6.90;99.90;;;;;;5048640;28;20080;-64
2022/02/10 20:42:19;;;;;;;0.25;0.25;;;6.90;99.90;;;;;;5033601;28;20033;-64
2022/02/10 20:44:48;;;;;;;0.10;0.10;;;6.90;99.90;;;;;;5033281;28;20025;-64
2022/02/10 20:47:18;;;;;;;0.13;0.13;;;6.80;99.90;;;;;;5033104;28;20048;-64
2022/02/10 20:49:45;;;;;;;0.00;0.00;;;6.80;99.90;;;;;;5048308;28;20037;-64
2022/02/10 20:52:11;;;;;;;1.92;1.75;;;6.80;99.90;;;;;;5048392;28;20045;-64
2022/02/10 20:54:38;;;;;;;0.20;0.20;;;6.80;99.90;;;;;;5033192;28;20026;-64
2022/02/10 20:57:05;;;;;;;0.52;0.43;;;6.80;99.90;;;;;;5032896;28;20090;-63
2022/02/10 21:02:03;;;;;;;0.10;0.10;;;6.80;99.90;;;;;;5032976;28;20152;-63
2022/02/10 21:04:29;;;;;;;0.68;0.68;;;6.90;99.90;;;;;;5032998;28;20041;-63
2022/02/10 21:07:01;;;;;;;0.63;0.63;;;6.80;99.90;;;;;;5032768;28;20025;-63
2022/02/10 21:12:11;;;;;;;0.00;0.00;;;6.80;99.90;;;;;;5032804;28;20472;-63
2022/02/10 21:14:38;;;;;;;0.10;0.10;;;6.80;99.90;;;;;;5031435;28;20056;-63
2022/02/10 21:17:10;;;;;;;0.35;0.35;;;6.80;99.90;;;;;;5031477;28;20033;-63
2022/02/10 21:19:38;;;;;;;0.00;0.00;;;6.70;99.90;;;;;;5047265;28;20029;-63
2022/02/10 21:22:09;;;;;;;1.83;1.70;;;6.70;99.90;;;;;;5032565;28;20041;-63
2022/02/10 21:24:40;;;;;;;;;;;6.70;99.90;;;;;;5033083;28;20044;-63
2022/02/10 21:29:35;;;;;;;0.35;0.35;;;6.70;99.90;;;;;;5047277;28;20034;-63
2022/02/10 21:32:01;;;;;;;0.10;0.10;;;6.70;99.90;;;;;;5032658;28;20107;-63
2022/02/10 21:34:31;;;;;;;0.10;0.10;;;6.60;99.90;;;;;;5032108;28;20049;-63
2022/02/10 21:47:51;;;;;;;1.05;0.95;;;6.50;99.90;;;;;;5031873;28;20112;-63
2022/02/10 22:09:34;;;;;;;0.10;0.10;;;6.60;99.90;;;;;;5031898;28;20064;-64
2022/02/10 22:20:05;;;;;;;0.10;0.10;;;6.50;99.90;;;;;;5031543;28;20099;-64
2022/02/10 22:22:37;;;;;;;0.10;0.10;;;6.50;99.90;;;;;;5030490;28;20025;-64
2022/02/10 22:25:10;;;;;;;0.20;0.20;;;6.50;99.90;;;;;;5030327;28;20029;-64
2022/02/10 22:27:41;;;;;;;0.20;0.20;;;6.50;99.90;;;;;;5031658;28;20037;-63
2022/02/10 22:30:17;;;;;;;0.75;0.75;;;6.50;99.90;;;;;;5046902;28;20501;-63
2022/02/10 22:32:51;;;;;;;0.00;0.00;;;6.50;99.90;;;;;;5046524;28;20479;-63
2022/02/10 22:35:17;;;;;;;0.13;0.13;;;6.50;99.90;;;;;;5031642;28;20084;-63
2022/02/10 22:37:45;;;;;;;0.20;0.20;;;6.60;99.90;;;;;;5031659;28;20590;-63
2022/02/10 22:40:37;;;;;;;0.00;0.00;;;6.60;99.90;;;;;;5030193;28;20048;-63
2022/02/10 22:43:00;;;;;;;0.10;0.10;;;6.60;99.90;;;;;;5043960;28;20734;-63
2022/02/10 22:45:26;;;;;;;0.85;0.85;;;6.50;99.90;;;;;;5031608;28;20382;-63
2022/02/10 22:47:52;;;;;;;0.10;0.10;;;6.50;99.90;;;;;;5031496;28;20025;-63
2022/02/10 22:50:17;;;;;;;0.50;0.50;;;6.50;99.90;;;;;;5031559;28;20056;-62
2022/02/10 22:52:43;;;;;;;0.32;0.32;;;6.50;99.90;;;;;;5032851;28;20037;-63
2022/02/10 22:55:09;;;;;;;0.20;0.20;;;6.50;99.90;;;;;;5035365;28;20033;-63
2022/02/10 22:57:35;;;;;;;0.20;0.20;;;6.60;99.90;;;;;;5035546;28;20030;-63
2022/02/10 23:00:07;;;;;;;0.70;0.70;;;6.50;99.90;;;;;;5035083;28;20375;-64
2022/02/10 23:02:32;;;;;;;;;;;6.50;99.90;;;;;;5034238;28;20036;-64
2022/02/10 23:04:58;;;;;;;0.10;0.10;;;6.60;99.90;;;;;;5035386;28;19913;-63
2022/02/10 23:07:24;;;;;;;0.32;0.32;;;6.50;99.90;;;;;;5035394;28;20044;-63
2022/02/10 23:09:53;;;;;;;0.20;0.20;;;6.50;99.90;;;;;;5035235;28;20025;-63
2022/02/10 23:12:19;;;;;;;0.20;0.20;;;6.50;99.90;;;;;;5050090;28;20128;-62
2022/02/10 23:14:45;;;;;;;0.00;0.00;;;6.40;99.90;;;;;;5035249;28;20112;-63
2022/02/10 23:17:11;;;;;;;0.10;0.10;;;6.40;99.90;;;;;;5035181;28;20497;-62
2022/02/10 23:19:39;;;;;;;0.20;0.20;;;6.30;99.90;;;;;;5050442;28;20182;-63
2022/02/10 23:22:05;;;;;;;0.40;0.40;;;6.40;99.90;;;;;;5035019;28;20042;-63
2022/02/10 23:24:31;;;;;;;0.10;0.10;;;6.40;99.90;;;;;;5035202;28;20044;-63
2022/02/10 23:26:57;;;;;;;1.67;1.20;;;6.40;99.90;;;;;;5050164;28;20029;-63
2022/02/10 23:29:23;;;;;;;0.38;0.38;;;6.30;99.90;;;;;;5033743;28;20378;-63
2022/02/10 23:31:48;;;;;;;0.30;0.30;;;6.30;99.90;;;;;;5034705;28;20033;-63
2022/02/10 23:34:14;;;;;;;0.10;0.10;;;6.20;99.90;;;;;;5034535;28;20049;-63
2022/02/10 23:36:46;;;;;;;0.45;0.45;;;6.20;99.90;;;;;;5034403;28;20087;-63
2022/02/10 23:39:34;;;;;;;0.43;0.43;;;6.10;99.90;;;;;;5049933;28;20033;-63
2022/02/10 23:42:33;;;;;;;0.00;0.00;;;6.20;99.90;;;;;;5049870;28;20037;-62
2022/02/10 23:44:52;;;;;;;0.10;0.10;;;6.20;99.90;;;;;;5033115;28;20037;-62
2022/02/10 23:47:23;;;;;;;0.65;0.57;;;6.20;99.90;;;;;;5034326;28;20421;-62
2022/02/10 23:49:51;;;;;;;0.00;0.00;;;6.10;99.90;;;;;;5049803;28;20036;-63
2022/02/10 23:52:19;;;;;;;0.00;0.00;;;6.10;99.90;;;;;;5049790;28;20053;-63
2022/02/10 23:54:48;;;;;;;0.10;0.10;;;6.10;99.90;;;;;;5034356;28;20049;-63
2022/02/10 23:58:10;;;;;;;0.70;0.45;;;6.00;99.90;;;;;;5034549;28;20033;-64
